createdAt,value
2023-04-07T00:01:40.417Z,6.80
2023-04-07T00:04:07.577Z,7.00
2023-04-07T00:06:34.621Z,8.53
2023-04-07T00:09:01.988Z,7.57
2023-04-07T00:11:29.040Z,9.00
2023-04-07T00:13:56.261Z,7.83
2023-04-07T00:16:23.759Z,7.37
2023-04-07T00:18:50.796Z,8.37
2023-04-07T00:21:17.953Z,8.03
2023-04-07T00:23:44.934Z,8.30
2023-04-07T00:26:11.846Z,8.57
2023-04-07T00:28:38.997Z,8.37
2023-04-07T00:31:06.059Z,8.83
2023-04-07T00:33:32.975Z,8.63
2023-04-07T00:35:59.997Z,9.30
2023-04-07T00:38:27.053Z,8.43
2023-04-07T00:41:00.644Z,7.30
2023-04-07T00:43:27.673Z,7.73
2023-04-07T00:45:54.786Z,8.90
2023-04-07T00:48:22.101Z,9.90
2023-04-07T00:50:49.213Z,9.07
2023-04-07T00:53:16.785Z,8.60
2023-04-07T00:55:44.149Z,9.90
2023-04-07T00:58:11.744Z,8.33
2023-04-07T01:00:46.751Z,8.50
2023-04-07T01:03:20.876Z,8.70
2023-04-07T01:06:01.724Z,6.73
2023-04-07T01:08:49.986Z,8.00
2023-04-07T01:11:37.374Z,7.93
2023-04-07T01:14:06.087Z,8.93
2023-04-07T01:16:39.451Z,7.17
2023-04-07T01:19:37.926Z,7.83
2023-04-07T01:22:12.371Z,7.90
2023-04-07T01:25:16.522Z,9.80
2023-04-07T01:27:52.192Z,9.30
2023-04-07T01:30:20.434Z,8.50
2023-04-07T01:32:51.920Z,9.10
2023-04-07T01:35:19.806Z,8.67
2023-04-07T01:37:48.913Z,8.80
2023-04-07T01:40:16.339Z,10.30
2023-04-07T01:42:45.972Z,8.80
2023-04-07T01:45:14.467Z,8.30
2023-04-07T01:47:41.612Z,7.63
2023-04-07T01:50:11.515Z,7.83
2023-04-07T01:52:40.031Z,7.03
2023-04-07T01:55:07.845Z,7.50
2023-04-07T01:57:34.812Z,7.47
2023-04-07T02:00:02.120Z,8.73
2023-04-07T02:02:29.207Z,8.43
2023-04-07T02:05:00.732Z,7.67
2023-04-07T02:07:46.799Z,8.00
2023-04-07T02:10:16.216Z,7.30
2023-04-07T02:12:47.123Z,8.47
2023-04-07T02:15:16.300Z,8.23
2023-04-07T02:17:48.795Z,7.63
2023-04-07T02:20:17.493Z,9.93
2023-04-07T02:22:44.772Z,8.80
2023-04-07T02:25:28.755Z,8.73
2023-04-07T02:27:58.095Z,8.07
2023-04-07T02:30:26.267Z,8.33
2023-04-07T02:32:53.951Z,8.73
2023-04-07T02:35:21.145Z,8.57
2023-04-07T02:37:48.268Z,9.40
2023-04-07T02:40:15.733Z,8.30
2023-04-07T02:42:43.262Z,9.37
2023-04-07T02:45:11.208Z,9.23
2023-04-07T02:47:39.142Z,9.27
2023-04-07T02:50:06.654Z,9.87
2023-04-07T02:52:33.577Z,8.70
2023-04-07T02:55:01.025Z,9.70
2023-04-07T02:57:27.996Z,9.33
2023-04-07T03:00:09.327Z,8.40
2023-04-07T03:02:36.474Z,8.67
2023-04-07T03:05:04.443Z,8.33
2023-04-07T03:07:32.073Z,7.20
2023-04-07T03:09:59.033Z,8.27
2023-04-07T03:12:26.238Z,9.67
2023-04-07T03:14:53.135Z,8.13
2023-04-07T03:17:20.416Z,8.57
2023-04-07T03:19:47.323Z,9.33
2023-04-07T03:22:14.259Z,9.00
2023-04-07T03:24:41.167Z,8.63
2023-04-07T03:27:08.101Z,8.27
2023-04-07T03:29:35.240Z,9.57
2023-04-07T03:32:02.188Z,9.00
2023-04-07T03:34:29.099Z,9.10
2023-04-07T03:36:56.006Z,8.93
2023-04-07T03:39:22.962Z,10.47
2023-04-07T03:41:49.960Z,10.10
2023-04-07T03:44:16.884Z,9.30
2023-04-07T03:46:45.614Z,11.83
2023-04-07T03:49:12.613Z,9.80
2023-04-07T03:51:39.982Z,8.07
2023-04-07T03:54:06.975Z,9.03
2023-04-07T03:56:33.939Z,9.83
2023-04-07T03:59:00.888Z,9.33
2023-04-07T04:01:27.962Z,8.87
2023-04-07T04:03:55.243Z,9.40
2023-04-07T04:06:22.457Z,9.10
2023-04-07T04:08:49.345Z,9.47
2023-04-07T04:11:16.338Z,9.13
2023-04-07T04:13:43.236Z,10.20
2023-04-07T04:16:10.624Z,8.33
2023-04-07T04:18:38.455Z,7.63
2023-04-07T04:21:05.605Z,8.50
2023-04-07T04:23:32.547Z,8.30
2023-04-07T04:26:00.231Z,8.87
2023-04-07T04:28:27.195Z,8.03
2023-04-07T04:30:54.127Z,8.63
2023-04-07T04:33:21.384Z,8.97
2023-04-07T04:35:48.305Z,9.00
2023-04-07T04:38:16.325Z,9.80
2023-04-07T04:40:43.285Z,9.37
2023-04-07T04:43:10.321Z,8.70
2023-04-07T04:45:37.314Z,9.50
2023-04-07T04:48:04.435Z,9.07
2023-04-07T04:50:31.415Z,10.30
2023-04-07T04:52:58.324Z,10.33
2023-04-07T04:55:25.250Z,11.13
2023-04-07T04:57:52.182Z,9.20
2023-04-07T05:00:19.497Z,9.83
2023-04-07T05:02:47.053Z,9.30
2023-04-07T05:05:14.338Z,9.30
2023-04-07T05:07:42.027Z,10.17
2023-04-07T05:10:09.283Z,8.40
2023-04-07T05:12:36.702Z,8.73
2023-04-07T05:15:03.915Z,10.23
2023-04-07T05:17:30.933Z,9.50
2023-04-07T05:19:57.880Z,10.17
2023-04-07T05:22:24.826Z,9.83
2023-04-07T05:24:51.751Z,9.10
2023-04-07T05:27:18.681Z,10.03
2023-04-07T05:29:45.714Z,10.63
2023-04-07T05:32:12.587Z,11.60
2023-04-07T05:34:40.087Z,11.13
2023-04-07T05:37:06.977Z,13.37
2023-04-07T05:39:33.879Z,10.97
2023-04-07T05:42:02.147Z,11.83
2023-04-07T05:44:29.152Z,12.80
2023-04-07T05:46:56.079Z,12.07
2023-04-07T05:49:22.959Z,12.53
2023-04-07T05:51:49.883Z,13.20
2023-04-07T05:54:16.901Z,11.33
2023-04-07T05:56:43.782Z,12.07
2023-04-07T05:59:10.734Z,11.60
2023-04-07T06:01:37.806Z,11.07
2023-04-07T06:04:04.866Z,11.33
2023-04-07T06:06:31.792Z,11.33
2023-04-07T06:08:58.784Z,12.50
2023-04-07T06:11:27.093Z,11.13
2023-04-07T06:13:54.198Z,13.07
2023-04-07T06:16:21.432Z,12.53
2023-04-07T06:18:48.422Z,12.60
2023-04-07T06:21:15.723Z,11.37
2023-04-07T06:23:42.659Z,12.63
2023-04-07T06:26:13.098Z,11.90
2023-04-07T06:28:40.657Z,12.53
2023-04-07T06:31:09.061Z,11.17
2023-04-07T06:33:36.201Z,13.30
2023-04-07T06:36:03.220Z,12.53
2023-04-07T06:38:30.376Z,11.87
2023-04-07T06:40:57.292Z,12.47
2023-04-07T06:43:24.180Z,11.07
2023-04-07T06:45:51.224Z,11.50
2023-04-07T06:48:18.196Z,11.97
2023-04-07T06:50:51.821Z,12.50
2023-04-07T06:53:18.854Z,12.23
2023-04-07T06:55:45.812Z,12.70
2023-04-07T06:58:12.781Z,12.73
2023-04-07T07:00:39.690Z,12.83
2023-04-07T07:03:06.847Z,12.60
2023-04-07T07:05:33.863Z,13.13
2023-04-07T07:08:00.974Z,12.80
2023-04-07T07:10:28.013Z,12.33
2023-04-07T07:12:55.160Z,15.30
2023-04-07T07:15:22.454Z,20.20
2023-04-07T14:25:45.976Z,3.70
2023-04-07T14:28:12.903Z,5.33
2023-04-07T14:30:39.858Z,5.87
2023-04-07T14:33:06.866Z,5.97
2023-04-07T14:35:37.446Z,6.50
2023-04-07T14:38:05.007Z,5.20
2023-04-07T14:40:31.987Z,4.90
2023-04-07T14:45:29.167Z,6.37
2023-04-07T14:47:56.266Z,6.67
2023-04-07T14:50:23.776Z,5.20
2023-04-07T14:52:50.839Z,4.70
2023-04-07T14:55:18.255Z,6.77
2023-04-07T14:57:45.544Z,5.40
2023-04-07T15:00:12.963Z,7.20
2023-04-07T15:02:40.544Z,7.23
2023-04-07T15:05:08.210Z,6.13
2023-04-07T15:07:35.451Z,6.97
2023-04-07T15:10:02.404Z,7.53
2023-04-07T15:12:31.436Z,6.20
2023-04-07T15:14:58.377Z,5.80
2023-04-07T15:17:36.334Z,5.93
2023-04-07T15:20:10.111Z,5.60
2023-04-07T15:22:37.059Z,5.20
2023-04-07T15:25:04.248Z,5.77
2023-04-07T15:27:31.196Z,7.93
2023-04-07T15:29:58.660Z,10.10
2023-04-07T15:32:25.747Z,7.43
2023-04-07T15:34:52.862Z,6.30
2023-04-07T15:37:19.825Z,8.10
2023-04-07T15:39:48.524Z,8.77
2023-04-07T15:42:15.464Z,8.50
2023-04-07T15:44:42.445Z,7.47
2023-04-07T15:47:09.514Z,7.77
2023-04-07T15:49:39.177Z,7.20
2023-04-07T15:52:06.428Z,7.00
2023-04-07T15:54:33.605Z,8.63
2023-04-07T15:57:01.001Z,7.10
2023-04-07T15:59:30.753Z,7.57
2023-04-07T16:01:58.284Z,9.50
2023-04-07T16:04:25.314Z,8.53
2023-04-07T16:06:52.380Z,6.77
2023-04-07T16:09:19.285Z,6.73
2023-04-07T16:11:46.218Z,6.80
2023-04-07T16:14:13.122Z,7.13
2023-04-07T16:16:41.462Z,7.30
2023-04-07T16:19:08.501Z,12.77
2023-04-07T16:21:35.690Z,8.07
2023-04-07T16:24:02.765Z,8.40
2023-04-07T16:26:29.814Z,7.10
2023-04-07T16:28:59.358Z,18.30
2023-04-07T16:31:26.383Z,8.10
2023-04-07T16:33:53.338Z,7.43
2023-04-07T16:36:20.273Z,8.60
2023-04-07T16:38:47.849Z,7.03
2023-04-07T16:41:14.754Z,7.23
2023-04-07T16:43:41.705Z,7.03
2023-04-07T16:46:08.760Z,6.90
2023-04-07T16:48:35.988Z,9.77
2023-04-07T16:51:03.153Z,7.90
2023-04-07T16:53:30.033Z,7.73
2023-04-07T16:55:56.983Z,8.00
2023-04-07T16:58:26.844Z,6.83
2023-04-07T17:00:53.781Z,7.20
2023-04-07T17:03:20.938Z,7.67
2023-04-07T17:05:49.331Z,8.17
2023-04-07T17:08:16.248Z,8.27
2023-04-07T17:10:43.168Z,8.17
2023-04-07T17:13:10.098Z,10.33
2023-04-07T17:15:38.468Z,10.40
2023-04-07T17:18:05.610Z,6.37
2023-04-07T17:20:32.584Z,9.37
2023-04-07T17:22:59.520Z,8.27
2023-04-07T17:25:26.399Z,10.73
2023-04-07T17:27:55.022Z,8.37
2023-04-07T17:30:22.396Z,12.43
2023-04-07T17:32:53.395Z,14.23
2023-04-07T17:35:21.294Z,12.80
2023-04-07T17:37:49.072Z,8.17
2023-04-07T17:40:16.064Z,10.70
2023-04-07T17:42:42.974Z,9.00
2023-04-07T17:45:10.688Z,7.83
2023-04-07T17:47:37.968Z,5.23
2023-04-07T17:50:05.436Z,4.30
2023-04-07T17:52:32.567Z,5.13
2023-04-07T17:54:59.497Z,4.70
2023-04-07T17:57:26.460Z,4.80
2023-04-07T17:59:53.430Z,5.23
2023-04-07T18:02:20.907Z,4.70
2023-04-07T18:04:48.117Z,4.60
2023-04-07T18:07:15.288Z,4.10
2023-04-07T18:09:42.942Z,4.50
2023-04-07T18:12:10.056Z,5.43
2023-04-07T18:14:37.386Z,5.23
2023-04-07T18:17:04.348Z,4.63
2023-04-07T18:19:32.875Z,4.97
2023-04-07T18:22:00.731Z,4.70
2023-04-07T18:24:27.767Z,5.60
2023-04-07T18:26:54.961Z,6.60
2023-04-07T18:29:22.020Z,5.20
2023-04-07T18:31:49.077Z,5.30
2023-04-07T18:34:16.090Z,6.30
2023-04-07T18:36:43.415Z,5.50
2023-04-07T18:39:10.713Z,4.80
2023-04-07T18:41:37.683Z,6.63
2023-04-07T18:44:04.599Z,5.20
2023-04-07T18:46:31.647Z,6.73
2023-04-07T18:48:58.899Z,5.73
2023-04-07T18:51:26.281Z,6.30
2023-04-07T18:53:53.228Z,9.17
2023-04-07T18:56:22.113Z,6.37
2023-04-07T18:58:49.122Z,5.90
2023-04-07T19:01:16.697Z,7.57
2023-04-07T19:03:43.878Z,5.77
2023-04-07T19:06:14.708Z,6.53
2023-04-07T19:08:42.690Z,6.10
2023-04-07T19:11:10.061Z,5.67
2023-04-07T19:13:37.044Z,6.47
2023-04-07T19:16:04.061Z,6.20
2023-04-07T19:18:31.817Z,7.97
2023-04-07T19:20:58.855Z,8.50
2023-04-07T19:23:26.117Z,6.27
2023-04-07T19:25:53.078Z,11.93
2023-04-07T19:28:22.880Z,8.63
2023-04-07T19:30:49.829Z,7.90
2023-04-07T19:33:16.784Z,6.43
2023-04-07T19:35:43.811Z,6.90
2023-04-07T19:38:10.909Z,7.40
2023-04-07T19:40:38.025Z,7.10
2023-04-07T19:43:04.999Z,6.30
2023-04-07T19:45:31.963Z,8.03
2023-04-07T19:48:00.361Z,5.77
2023-04-07T19:50:28.220Z,5.60
2023-04-07T19:52:55.189Z,5.80
2023-04-07T19:55:22.223Z,6.73
2023-04-07T19:57:49.693Z,7.13
2023-04-07T20:00:16.924Z,6.03
2023-04-07T20:02:44.102Z,4.80
2023-04-07T20:05:11.376Z,5.53
2023-04-07T20:07:38.308Z,4.90
2023-04-07T20:10:06.068Z,7.30
2023-04-07T20:12:32.980Z,7.17
2023-04-07T20:14:59.905Z,4.77
2023-04-07T20:17:26.925Z,4.93
2023-04-07T20:19:55.593Z,4.80
2023-04-07T20:22:22.873Z,4.57
2023-04-07T20:24:49.847Z,5.33
2023-04-07T20:27:18.189Z,6.20
2023-04-07T20:29:45.613Z,5.63
2023-04-07T20:32:12.874Z,6.07
2023-04-07T20:34:39.813Z,5.10
2023-04-07T20:37:06.709Z,5.10
2023-04-07T20:39:33.718Z,5.03
2023-04-07T20:42:00.691Z,7.03
2023-04-07T20:44:29.081Z,4.30
2023-04-07T20:46:56.246Z,5.83
2023-04-07T20:49:23.226Z,5.27
2023-04-07T20:51:50.248Z,4.33
2023-04-07T20:54:17.152Z,5.07
2023-04-07T20:56:44.976Z,5.67
2023-04-07T20:59:11.986Z,6.30
2023-04-07T21:01:39.098Z,5.60
2023-04-07T21:04:06.390Z,4.80
2023-04-07T21:06:33.441Z,6.30
2023-04-07T21:09:01.267Z,4.80
2023-04-07T21:11:28.333Z,5.27
2023-04-07T21:13:55.498Z,5.20
2023-04-07T21:16:22.763Z,5.63
2023-04-07T21:18:50.764Z,10.05
2023-04-07T21:21:18.105Z,5.47
2023-04-07T21:23:45.099Z,5.13
2023-04-07T21:26:12.112Z,5.40
2023-04-07T21:28:40.412Z,5.10
2023-04-07T21:31:08.956Z,5.40
2023-04-07T21:33:36.119Z,6.00
2023-04-07T21:36:03.774Z,5.27
2023-04-07T21:38:31.393Z,4.60
2023-04-07T21:40:58.310Z,6.73
2023-04-07T21:43:25.344Z,4.63
2023-04-07T21:45:52.362Z,4.63
2023-04-07T21:48:23.638Z,4.17
2023-04-07T21:50:52.060Z,3.70
2023-04-07T21:53:19.096Z,5.40
2023-04-07T21:55:46.016Z,3.47
2023-04-07T21:58:12.924Z,3.57
2023-04-07T22:00:39.899Z,3.90
2023-04-07T22:03:07.464Z,3.60
2023-04-07T22:05:34.631Z,3.83
2023-04-07T22:08:03.103Z,3.60
2023-04-07T22:10:30.330Z,3.80
2023-04-07T22:12:57.315Z,4.37
2023-04-07T22:15:24.232Z,4.10
2023-04-07T22:17:51.170Z,3.63
2023-04-07T22:20:18.071Z,4.27
2023-04-07T22:22:45.024Z,4.57
2023-04-07T22:25:11.938Z,5.37
2023-04-07T22:27:38.858Z,5.17
2023-04-07T22:30:09.816Z,8.27
2023-04-07T22:32:37.015Z,6.43
2023-04-07T22:35:04.179Z,4.80
2023-04-07T22:37:31.146Z,5.00
2023-04-07T22:39:58.105Z,5.70
2023-04-07T22:42:25.274Z,6.57
2023-04-07T22:44:52.250Z,5.47
2023-04-07T22:47:20.606Z,5.50
2023-04-07T22:49:47.958Z,5.73
2023-04-07T22:52:14.914Z,5.33
2023-04-07T22:54:41.821Z,5.43
2023-04-07T22:57:08.805Z,6.47
2023-04-07T22:59:35.874Z,6.47
2023-04-07T23:02:02.862Z,9.33
2023-04-07T23:04:29.825Z,7.47
2023-04-07T23:06:56.765Z,5.83
2023-04-07T23:09:23.739Z,6.43
2023-04-07T23:11:50.661Z,6.40
2023-04-07T23:14:17.577Z,6.33
2023-04-07T23:16:44.622Z,6.87
2023-04-07T23:19:15.210Z,6.80
2023-04-07T23:21:43.013Z,5.37
2023-04-07T23:24:09.986Z,5.80
2023-04-07T23:26:36.964Z,5.83
2023-04-07T23:29:03.914Z,6.10
2023-04-07T23:31:31.199Z,6.03
2023-04-07T23:33:59.386Z,5.63
2023-04-07T23:36:27.068Z,6.20
2023-04-07T23:38:57.015Z,5.10
2023-04-07T23:41:24.171Z,4.93
2023-04-07T23:43:51.585Z,5.70
2023-04-07T23:46:18.593Z,5.47
2023-04-07T23:48:45.520Z,6.27
2023-04-07T23:51:12.817Z,7.70
2023-04-07T23:53:39.845Z,5.37
2023-04-07T23:56:07.092Z,4.97
2023-04-07T23:58:34.028Z,5.93
